Time,TemperatureF,DewpointF,PressureIn,WindDirection,WindDirectionDegrees,WindSpeedMPH,WindSpeedGustMPH,Humidity,HourlyPrecipIn,Conditions,Clouds,dailyrainin,SolarRadiationWatts/m^2,SoftwareType,DateUTC
2013-02-07 00:00:00,28.0,3.2,30.33,NW,321,7.0,14.0,34,0.00,,,0.00,0.0,meteohub,2013-02-07 05:00:00,
2013-02-07 00:01:00,28.0,3.2,30.33,NW,326,4.0,14.0,34,0.00,,,0.00,0.0,meteohub,2013-02-07 05:01:00,
2013-02-07 00:02:00,28.0,3.2,30.32,NW,310,11.0,14.0,34,0.00,,,0.00,0.0,meteohub,2013-02-07 05:02:00,
2013-02-07 00:07:00,27.9,2.5,30.33,North,350,10.0,14.0,33,0.00,,,0.00,0.0,meteohub,2013-02-07 05:07:00,
2013-02-07 00:12:00,27.9,2.5,30.33,WNW,300,5.0,14.0,33,0.00,,,0.00,0.0,meteohub,2013-02-07 05:12:00,
2013-02-07 00:17:00,27.7,3.0,30.32,NNW,331,8.0,14.0,34,0.00,,,0.00,0.0,meteohub,2013-02-07 05:17:00,
2013-02-07 00:22:00,27.7,3.0,30.33,NW,315,9.0,14.0,34,0.00,,,0.00,0.0,meteohub,2013-02-07 05:22:00,
2013-02-07 00:28:00,27.7,3.0,30.34,NW,307,8.0,14.0,34,0.00,,,0.00,0.0,meteohub,2013-02-07 05:28:00,
2013-02-07 00:33:00,27.5,2.8,30.33,NW,315,10.0,16.0,34,0.00,,,0.00,0.0,meteohub,2013-02-07 05:33:00,
2013-02-07 00:38:00,27.3,2.7,30.34,NNW,348,9.0,16.0,34,0.00,,,0.00,0.0,meteohub,2013-02-07 05:38:00,
2013-02-07 00:43:00,27.1,2.5,30.34,WNW,296,7.0,16.0,34,0.00,,,0.00,0.0,meteohub,2013-02-07 05:43:00,
2013-02-07 00:48:00,27.1,2.5,30.34,North,349,6.0,13.0,34,0.00,,,0.00,0.0,meteohub,2013-02-07 05:48:00,
2013-02-07 00:53:00,27.0,2.3,30.33,NNW,339,5.0,11.0,34,0.00,,,0.00,0.0,meteohub,2013-02-07 05:53:00,
2013-02-07 00:59:00,27.0,2.3,30.33,NNW,341,8.0,13.0,34,0.00,,,0.00,0.0,meteohub,2013-02-07 05:59:00,
2013-02-07 01:04:00,26.8,2.1,30.33,North,355,7.0,14.0,34,0.00,,,0.00,0.0,meteohub,2013-02-07 06:04:00,
2013-02-07 01:09:00,26.8,2.1,30.33,North,355,9.0,14.0,34,0.00,,,0.00,0.0,meteohub,2013-02-07 06:09:00,
2013-02-07 01:14:00,26.6,2.7,30.33,North,10,5.0,16.0,35,0.00,,,0.00,0.0,meteohub,2013-02-07 06:14:00,
2013-02-07 01:19:00,26.6,1.9,30.34,North,0,3.0,16.0,34,0.00,,,0.00,0.0,meteohub,2013-02-07 06:19:00,
2013-02-07 01:24:00,26.4,1.8,30.34,NNW,336,5.0,14.0,34,0.00,,,0.00,0.0,meteohub,2013-02-07 06:24:00,
2013-02-07 01:30:00,26.2,2.3,30.35,NNW,328,5.0,12.0,35,0.00,,,0.00,0.0,meteohub,2013-02-07 06:30:00,
2013-02-07 01:35:00,26.1,2.8,30.35,NW,319,0.0,9.0,36,0.00,,,0.00,0.0,meteohub,2013-02-07 06:35:00,
2013-02-07 01:40:00,25.9,2.7,30.36,NW,318,1.0,9.0,36,0.00,,,0.00,0.0,meteohub,2013-02-07 06:40:00,
2013-02-07 01:45:00,25.5,2.8,30.36,NW,318,0.0,6.0,37,0.00,,,0.00,0.0,meteohub,2013-02-07 06:45:00,
2013-02-07 01:50:00,25.5,2.8,30.36,NW,318,0.0,5.0,37,0.00,,,0.00,0.0,meteohub,2013-02-07 06:50:00,
2013-02-07 01:55:00,25.5,4.5,30.36,NW,318,2.0,4.0,40,0.00,,,0.00,0.0,meteohub,2013-02-07 06:55:00,
2013-02-07 02:00:00,25.2,4.8,30.36,NW,318,0.0,2.0,41,0.00,,,0.00,0.0,meteohub,2013-02-07 07:00:00,
2013-02-07 02:06:00,24.6,4.8,30.37,NW,318,0.0,2.0,42,0.00,,,0.00,0.0,meteohub,2013-02-07 07:06:00,
2013-02-07 02:11:00,24.6,4.3,30.37,NW,318,0.0,2.0,41,0.00,,,0.00,0.0,meteohub,2013-02-07 07:11:00,
2013-02-07 02:16:00,24.4,4.6,30.37,NW,318,1.0,5.0,42,0.00,,,0.00,0.0,meteohub,2013-02-07 07:16:00,
2013-02-07 02:21:00,24.3,4.5,30.37,NW,318,1.0,5.0,42,0.00,,,0.00,0.0,meteohub,2013-02-07 07:21:00,
2013-02-07 02:26:00,24.1,4.3,30.38,NW,321,4.0,5.0,42,0.00,,,0.00,0.0,meteohub,2013-02-07 07:26:00,
2013-02-07 02:32:00,24.1,4.8,30.38,North,355,5.0,8.0,43,0.00,,,0.00,0.0,meteohub,2013-02-07 07:32:00,
2013-02-07 02:37:00,24.3,5.0,30.39,North,355,1.0,8.0,43,0.00,,,0.00,0.0,meteohub,2013-02-07 07:37:00,
2013-02-07 02:42:00,24.1,5.4,30.39,NNW,328,1.0,8.0,44,0.00,,,0.00,0.0,meteohub,2013-02-07 07:42:00,
2013-02-07 02:47:00,23.9,5.2,30.38,NNW,327,4.0,8.0,44,0.00,,,0.00,0.0,meteohub,2013-02-07 07:47:00,
2013-02-07 02:52:00,23.7,5.5,30.38,NNW,338,4.0,8.0,45,0.00,,,0.00,0.0,meteohub,2013-02-07 07:52:00,
2013-02-07 02:57:00,23.5,5.4,30.38,North,0,2.0,6.0,45,0.00,,,0.00,0.0,meteohub,2013-02-07 07:57:00,
2013-02-07 03:02:00,23.5,5.4,30.38,NW,309,6.0,7.0,45,0.00,,,0.00,0.0,meteohub,2013-02-07 08:02:00,
2013-02-07 03:07:00,23.5,5.7,30.38,NNW,340,7.0,8.0,46,0.00,,,0.00,0.0,meteohub,2013-02-07 08:07:00,
2013-02-07 03:12:00,23.5,5.4,30.38,NW,317,1.0,9.0,45,0.00,,,0.00,0.0,meteohub,2013-02-07 08:12:00,
2013-02-07 03:17:00,23.4,5.2,30.38,NW,323,7.0,9.0,45,0.00,,,0.00,0.0,meteohub,2013-02-07 08:17:00,
2013-02-07 03:22:00,23.4,5.2,30.38,North,5,4.0,9.0,45,0.00,,,0.00,0.0,meteohub,2013-02-07 08:22:00,
2013-02-07 03:27:00,23.5,5.7,30.38,NNW,333,9.0,15.0,46,0.00,,,0.00,0.0,meteohub,2013-02-07 08:27:00,
2013-02-07 03:32:00,23.5,5.4,30.38,North,355,6.0,15.0,45,0.00,,,0.00,0.0,meteohub,2013-02-07 08:32:00,
2013-02-07 03:37:00,23.5,5.4,30.38,NNW,340,8.0,15.0,45,0.00,,,0.00,0.0,meteohub,2013-02-07 08:37:00,
2013-02-07 03:42:00,23.7,5.5,30.38,North,5,5.0,14.0,45,0.00,,,0.00,0.0,meteohub,2013-02-07 08:42:00,
2013-02-07 03:47:00,23.7,5.5,30.38,North,10,5.0,14.0,45,0.00,,,0.00,0.0,meteohub,2013-02-07 08:47:00,
2013-02-07 03:52:00,23.7,5.9,30.38,NW,319,4.0,14.0,46,0.00,,,0.00,0.0,meteohub,2013-02-07 08:52:00,
2013-02-07 03:57:00,23.5,5.4,30.39,NNW,334,1.0,14.0,45,0.00,,,0.00,0.0,meteohub,2013-02-07 08:57:00,
2013-02-07 04:02:00,23.5,5.4,30.39,North,355,5.0,12.0,45,0.00,,,0.00,0.0,meteohub,2013-02-07 09:02:00,
2013-02-07 04:07:00,23.5,5.7,30.40,NW,313,4.0,10.0,46,0.00,,,0.00,0.0,meteohub,2013-02-07 09:07:00,
2013-02-07 04:12:00,23.5,5.4,30.40,NNW,333,7.0,11.0,45,0.00,,,0.00,0.0,meteohub,2013-02-07 09:12:00,
2013-02-07 04:17:00,23.7,5.5,30.40,NNW,329,9.0,11.0,45,0.00,,,0.00,0.0,meteohub,2013-02-07 09:17:00,
2013-02-07 04:22:00,23.5,5.4,30.40,North,0,4.0,10.0,45,0.00,,,0.00,0.0,meteohub,2013-02-07 09:22:00,
2013-02-07 04:27:00,23.5,5.4,30.40,NNW,347,7.0,10.0,45,0.00,,,0.00,0.0,meteohub,2013-02-07 09:27:00,
2013-02-07 04:32:00,23.5,5.7,30.40,NW,313,7.0,11.0,46,0.00,,,0.00,0.0,meteohub,2013-02-07 09:32:00,
2013-02-07 04:37:00,23.5,5.7,30.40,NW,325,4.0,11.0,46,0.00,,,0.00,0.0,meteohub,2013-02-07 09:37:00,
2013-02-07 04:42:00,23.5,5.7,30.40,NNE,19,0.0,10.0,46,0.00,,,0.00,0.0,meteohub,2013-02-07 09:42:00,
2013-02-07 04:47:00,23.4,5.5,30.40,NNW,340,7.0,9.0,46,0.00,,,0.00,0.0,meteohub,2013-02-07 09:47:00,
2013-02-07 04:52:00,23.4,5.5,30.40,NNE,17,5.0,10.0,46,0.00,,,0.00,0.0,meteohub,2013-02-07 09:52:00,
2013-02-07 04:57:00,23.4,5.5,30.40,NW,326,9.0,12.0,46,0.00,,,0.00,0.0,meteohub,2013-02-07 09:57:00,
2013-02-07 05:02:00,23.5,5.7,30.40,North,9,4.0,12.0,46,0.00,,,0.00,0.0,meteohub,2013-02-07 10:02:00,
2013-02-07 05:07:00,23.5,5.7,30.41,North,11,5.0,12.0,46,0.00,,,0.00,0.0,meteohub,2013-02-07 10:07:00,
2013-02-07 05:12:00,23.4,5.5,30.41,NNE,18,5.0,11.0,46,0.00,,,0.00,0.0,meteohub,2013-02-07 10:12:00,
2013-02-07 05:17:00,23.4,5.5,30.41,North,0,2.0,11.0,46,0.00,,,0.00,0.0,meteohub,2013-02-07 10:17:00,
2013-02-07 05:22:00,23.4,5.5,30.41,NNW,342,4.0,8.0,46,0.00,,,0.00,0.0,meteohub,2013-02-07 10:22:00,
2013-02-07 05:27:00,23.4,5.5,30.41,NNW,344,5.0,11.0,46,0.00,,,0.00,0.0,meteohub,2013-02-07 10:27:00,
2013-02-07 05:32:00,23.4,5.5,30.41,NNW,327,9.0,11.0,46,0.00,,,0.00,0.0,meteohub,2013-02-07 10:32:00,
2013-02-07 05:37:00,23.4,6.1,30.41,North,355,6.0,11.0,47,0.00,,,0.00,0.0,meteohub,2013-02-07 10:37:00,
2013-02-07 05:42:00,23.4,6.1,30.41,WNW,301,5.0,10.0,47,0.00,,,0.00,0.0,meteohub,2013-02-07 10:42:00,
2013-02-07 05:47:00,23.4,6.1,30.41,NNE,24,4.0,11.0,47,0.00,,,0.00,0.0,meteohub,2013-02-07 10:47:00,
2013-02-07 05:52:00,23.4,6.1,30.41,NNW,344,5.0,13.0,47,0.00,,,0.00,0.0,meteohub,2013-02-07 10:52:00,
2013-02-07 05:57:00,23.4,6.1,30.42,NW,309,8.0,14.0,47,0.00,,,0.00,0.0,meteohub,2013-02-07 10:57:00,
2013-02-07 06:02:00,23.5,5.7,30.42,North,355,5.0,14.0,46,0.00,,,0.00,0.0,meteohub,2013-02-07 11:02:00,
2013-02-07 06:07:00,23.7,5.9,30.42,North,351,6.0,14.0,46,0.00,,,0.00,0.0,meteohub,2013-02-07 11:07:00,
2013-02-07 06:12:00,23.9,6.1,30.42,North,5,5.0,14.0,46,0.00,,,0.00,0.0,meteohub,2013-02-07 11:12:00,
2013-02-07 06:17:00,24.3,7.3,30.43,North,9,4.0,14.0,48,0.00,,,0.00,0.0,meteohub,2013-02-07 11:17:00,
2013-02-07 06:22:00,24.3,6.4,30.43,NNW,327,7.0,13.0,46,0.00,,,0.00,0.0,meteohub,2013-02-07 11:22:00,
2013-02-07 06:27:00,24.4,6.1,30.43,NNW,331,1.0,13.0,45,0.00,,,0.00,0.0,meteohub,2013-02-07 11:27:00,
2013-02-07 06:32:00,24.4,6.6,30.43,North,0,6.0,12.0,46,0.00,,,0.00,0.0,meteohub,2013-02-07 11:32:00,
2013-02-07 06:37:00,24.6,7.3,30.43,North,350,8.0,13.0,47,0.00,,,0.00,0.0,meteohub,2013-02-07 11:37:00,
2013-02-07 06:42:00,24.6,6.3,30.43,NW,320,9.0,13.0,45,0.00,,,0.00,0.0,meteohub,2013-02-07 11:42:00,
2013-02-07 06:47:00,24.6,6.3,30.43,NNW,327,12.0,13.0,45,0.00,,,0.00,0.0,meteohub,2013-02-07 11:47:00,
2013-02-07 06:52:00,24.6,6.3,30.43,NW,315,12.0,16.0,45,0.00,,,0.00,0.0,meteohub,2013-02-07 11:52:00,
2013-02-07 06:57:00,24.6,6.3,30.43,North,355,6.0,16.0,45,0.00,,,0.00,0.0,meteohub,2013-02-07 11:57:00,
2013-02-07 07:02:00,24.6,5.9,30.43,NNW,337,10.0,16.0,44,0.00,,,0.00,0.0,meteohub,2013-02-07 12:02:00,
2013-02-07 07:07:00,24.6,5.9,30.43,NNW,331,7.0,14.0,44,0.00,,,0.00,5.0,meteohub,2013-02-07 12:07:00,
2013-02-07 07:12:00,24.6,5.9,30.44,North,9,6.0,15.0,44,0.00,,,0.00,11.0,meteohub,2013-02-07 12:12:00,
2013-02-07 07:17:00,24.6,6.3,30.44,NNW,336,7.0,15.0,45,0.00,,,0.00,16.0,meteohub,2013-02-07 12:17:00,
2013-02-07 07:23:00,24.4,5.2,30.45,NNE,15,7.0,15.0,43,0.00,,,0.00,19.0,meteohub,2013-02-07 12:23:00,
2013-02-07 07:28:00,24.4,5.2,30.45,North,5,8.0,13.0,43,0.00,,,0.00,25.0,meteohub,2013-02-07 12:28:00,
2013-02-07 07:33:00,24.3,5.0,30.45,North,5,3.0,12.0,43,0.00,,,0.00,30.0,meteohub,2013-02-07 12:33:00,
2013-02-07 07:38:00,24.4,5.7,30.45,NNE,12,8.0,10.0,44,0.00,,,0.00,35.0,meteohub,2013-02-07 12:38:00,
2013-02-07 07:43:00,24.4,5.2,30.45,North,5,6.0,10.0,43,0.00,,,0.00,40.0,meteohub,2013-02-07 12:43:00,
2013-02-07 07:48:00,24.6,5.4,30.46,NNE,22,0.0,10.0,43,0.00,,,0.00,47.0,meteohub,2013-02-07 12:48:00,
2013-02-07 07:53:00,24.6,5.4,30.47,NNE,23,3.0,10.0,43,0.00,,,0.00,53.0,meteohub,2013-02-07 12:53:00,
2013-02-07 07:59:00,24.6,5.4,30.47,North,0,8.0,10.0,43,0.00,,,0.00,58.0,meteohub,2013-02-07 12:59:00,
2013-02-07 08:04:00,24.8,5.5,30.47,NNE,18,5.0,12.0,43,0.00,,,0.00,63.0,meteohub,2013-02-07 13:04:00,
2013-02-07 08:09:00,25.0,5.2,30.48,North,5,7.0,12.0,42,0.00,,,0.00,67.0,meteohub,2013-02-07 13:09:00,
2013-02-07 08:14:00,25.0,5.7,30.48,NNE,17,3.0,12.0,43,0.00,,,0.00,72.0,meteohub,2013-02-07 13:14:00,
2013-02-07 08:19:00,25.2,5.7,30.48,NNE,14,6.0,10.0,43,0.00,,,0.00,76.0,meteohub,2013-02-07 13:19:00,
2013-02-07 08:24:00,25.3,5.9,30.49,North,0,3.0,10.0,43,0.00,,,0.00,79.0,meteohub,2013-02-07 13:24:00,
2013-02-07 08:30:00,25.5,5.5,30.49,NNE,17,4.0,8.0,42,0.00,,,0.00,83.0,meteohub,2013-02-07 13:30:00,
2013-02-07 08:35:00,25.5,5.0,30.49,NNE,13,3.0,8.0,41,0.00,,,0.00,88.0,meteohub,2013-02-07 13:35:00,
2013-02-07 08:40:00,25.7,5.7,30.49,North,5,5.0,8.0,42,0.00,,,0.00,90.0,meteohub,2013-02-07 13:40:00,
2013-02-07 08:45:00,25.7,5.2,30.49,NNW,342,8.0,11.0,41,0.00,,,0.00,91.0,meteohub,2013-02-07 13:45:00,
2013-02-07 08:50:00,25.9,5.4,30.50,NW,321,4.0,11.0,41,0.00,,,0.00,97.0,meteohub,2013-02-07 13:50:00,
2013-02-07 08:56:00,26.1,6.1,30.49,North,9,8.0,11.0,42,0.00,,,0.00,98.0,meteohub,2013-02-07 13:56:00,
2013-02-07 09:01:00,26.1,5.0,30.49,North,5,4.0,14.0,40,0.00,,,0.00,107.0,meteohub,2013-02-07 14:01:00,
2013-02-07 09:06:00,26.1,5.0,30.49,North,0,6.0,14.0,40,0.00,,,0.00,116.0,meteohub,2013-02-07 14:06:00,
2013-02-07 09:11:00,26.2,5.2,30.50,NNE,14,5.0,14.0,40,0.00,,,0.00,123.0,meteohub,2013-02-07 14:11:00,
2013-02-07 09:16:00,26.4,5.9,30.50,NNE,14,8.0,10.0,41,0.00,,,0.00,132.0,meteohub,2013-02-07 14:16:00,
2013-02-07 09:21:00,26.6,5.0,30.50,NNE,22,7.0,12.0,39,0.00,,,0.00,137.0,meteohub,2013-02-07 14:21:00,
2013-02-07 09:26:00,26.8,5.7,30.50,NW,326,10.0,12.0,40,0.00,,,0.00,146.0,meteohub,2013-02-07 14:26:00,
2013-02-07 09:31:00,26.8,6.3,30.49,NNE,18,7.0,12.0,41,0.00,,,0.00,155.0,meteohub,2013-02-07 14:31:00,
2013-02-07 09:36:00,27.0,5.9,30.49,North,355,7.0,11.0,40,0.00,,,0.00,163.0,meteohub,2013-02-07 14:36:00,
2013-02-07 09:42:00,27.1,6.1,30.49,NNE,12,6.0,11.0,40,0.00,,,0.00,158.0,meteohub,2013-02-07 14:42:00,
2013-02-07 09:47:00,27.3,6.3,30.49,North,10,8.0,11.0,40,0.00,,,0.00,151.0,meteohub,2013-02-07 14:47:00,
2013-02-07 09:52:00,27.7,7.0,30.50,NNW,348,7.0,11.0,41,0.00,,,0.00,155.0,meteohub,2013-02-07 14:52:00,
2013-02-07 09:57:00,27.7,6.4,30.50,NNE,22,6.0,12.0,40,0.00,,,0.00,162.0,meteohub,2013-02-07 14:57:00,
2013-02-07 10:02:00,27.7,6.4,30.50,NNE,13,9.0,12.0,40,0.00,,,0.00,169.0,meteohub,2013-02-07 15:02:00,
2013-02-07 10:07:00,27.7,6.4,30.50,NE,46,4.0,14.0,40,0.00,,,0.00,172.0,meteohub,2013-02-07 15:07:00,
2013-02-07 10:12:00,27.9,6.6,30.50,NE,36,7.0,16.0,40,0.00,,,0.00,172.0,meteohub,2013-02-07 15:12:00,
2013-02-07 10:17:00,27.9,6.6,30.50,NNW,346,9.0,17.0,40,0.00,,,0.00,181.0,meteohub,2013-02-07 15:17:00,
2013-02-07 10:22:00,27.9,6.6,30.49,NNE,15,8.0,17.0,40,0.00,,,0.00,185.0,meteohub,2013-02-07 15:22:00,
2013-02-07 10:27:00,28.0,7.3,30.50,NNE,30,6.0,17.0,41,0.00,,,0.00,211.0,meteohub,2013-02-07 15:27:00,
2013-02-07 10:32:00,28.8,8.1,30.50,NNE,15,12.0,14.0,41,0.00,,,0.00,225.0,meteohub,2013-02-07 15:32:00,
2013-02-07 10:37:00,28.8,8.1,30.51,North,5,10.0,14.0,41,0.00,,,0.00,223.0,meteohub,2013-02-07 15:37:00,
2013-02-07 10:42:00,28.9,7.7,30.51,NE,34,4.0,14.0,40,0.00,,,0.00,225.0,meteohub,2013-02-07 15:42:00,
2013-02-07 10:47:00,29.3,7.9,30.50,North,0,8.0,14.0,40,0.00,,,0.00,225.0,meteohub,2013-02-07 15:47:00,
2013-02-07 10:52:00,29.3,9.0,30.50,North,5,5.0,12.0,42,0.00,,,0.00,229.0,meteohub,2013-02-07 15:52:00,
2013-02-07 10:57:00,29.7,9.3,30.50,NE,37,7.0,12.0,42,0.00,,,0.00,262.0,meteohub,2013-02-07 15:57:00,
2013-02-07 11:02:00,30.0,8.6,30.50,NE,46,6.0,12.0,40,0.00,,,0.00,276.0,meteohub,2013-02-07 16:02:00,
2013-02-07 11:07:00,30.6,8.6,30.49,NNE,32,7.0,11.0,39,0.00,,,0.00,281.0,meteohub,2013-02-07 16:07:00,
2013-02-07 11:12:00,30.4,8.4,30.50,North,5,7.0,11.0,39,0.00,,,0.00,269.0,meteohub,2013-02-07 16:12:00,
2013-02-07 11:17:00,30.6,8.6,30.49,NW,315,8.0,13.0,39,0.00,,,0.00,276.0,meteohub,2013-02-07 16:17:00,
2013-02-07 11:22:00,30.9,8.2,30.50,North,0,5.0,13.0,38,0.00,,,0.00,283.0,meteohub,2013-02-07 16:22:00,
2013-02-07 11:28:00,30.9,8.2,30.49,North,5,6.0,13.0,38,0.00,,,0.00,295.0,meteohub,2013-02-07 16:28:00,
2013-02-07 11:33:00,31.3,9.1,30.49,NNE,15,6.0,12.0,39,0.00,,,0.00,346.0,meteohub,2013-02-07 16:33:00,
2013-02-07 11:38:00,31.8,9.7,30.49,NNE,22,5.0,12.0,39,0.00,,,0.00,388.0,meteohub,2013-02-07 16:38:00,
2013-02-07 11:43:00,32.5,9.7,30.49,North,5,4.0,12.0,38,0.00,,,0.00,350.0,meteohub,2013-02-07 16:43:00,
2013-02-07 11:48:00,32.9,9.5,30.49,NNE,25,8.0,10.0,37,0.00,,,0.00,380.0,meteohub,2013-02-07 16:48:00,
2013-02-07 11:53:00,33.4,9.3,30.49,NNW,334,4.0,10.0,36,0.00,,,0.00,446.0,meteohub,2013-02-07 16:53:00,
2013-02-07 11:58:00,33.8,9.7,30.48,NE,42,6.0,10.0,36,0.00,,,0.00,439.0,meteohub,2013-02-07 16:58:00,
2013-02-07 12:04:00,33.6,9.5,30.48,East,85,1.0,10.0,36,0.00,,,0.00,459.0,meteohub,2013-02-07 17:04:00,
2013-02-07 12:09:00,34.3,9.5,30.48,NE,46,4.0,9.0,35,0.00,,,0.00,353.0,meteohub,2013-02-07 17:09:00,
2013-02-07 12:14:00,34.5,9.7,30.48,North,9,0.0,8.0,35,0.00,,,0.00,364.0,meteohub,2013-02-07 17:14:00,
2013-02-07 12:19:00,34.2,8.8,30.48,ENE,57,1.0,8.0,34,0.00,,,0.00,387.0,meteohub,2013-02-07 17:19:00,
2013-02-07 12:24:00,34.5,9.0,30.48,North,0,3.0,8.0,34,0.00,,,0.00,374.0,meteohub,2013-02-07 17:24:00,
2013-02-07 12:29:00,34.5,8.4,30.47,East,93,0.0,9.0,33,0.00,,,0.00,394.0,meteohub,2013-02-07 17:29:00,
2013-02-07 12:35:00,33.3,7.9,30.47,SW,226,0.0,9.0,34,0.00,,,0.00,415.0,meteohub,2013-02-07 17:35:00,
2013-02-07 12:40:00,34.7,9.9,30.47,North,0,0.0,7.0,35,0.00,,,0.00,443.0,meteohub,2013-02-07 17:40:00,
2013-02-07 12:45:00,35.2,10.4,30.47,NE,44,1.0,7.0,35,0.00,,,0.00,519.0,meteohub,2013-02-07 17:45:00,
2013-02-07 12:50:00,36.7,10.2,30.47,North,0,4.0,6.0,33,0.00,,,0.00,452.0,meteohub,2013-02-07 17:50:00,
2013-02-07 12:55:00,37.2,10.0,30.47,North,355,5.0,6.0,32,0.00,,,0.00,394.0,meteohub,2013-02-07 17:55:00,
2013-02-07 13:00:00,35.4,8.4,30.47,North,355,4.0,6.0,32,0.00,,,0.00,352.0,meteohub,2013-02-07 18:00:00,
2013-02-07 13:06:00,34.3,8.2,30.46,South,173,2.0,6.0,33,0.00,,,0.00,352.0,meteohub,2013-02-07 18:06:00,
2013-02-07 13:11:00,33.3,8.6,30.46,ESE,121,1.0,5.0,35,0.00,,,0.00,406.0,meteohub,2013-02-07 18:11:00,
2013-02-07 13:16:00,33.8,9.7,30.45,ESE,117,2.0,6.0,36,0.00,,,0.00,394.0,meteohub,2013-02-07 18:16:00,
2013-02-07 13:21:00,33.4,9.3,30.46,SE,125,0.0,9.0,36,0.00,,,0.00,323.0,meteohub,2013-02-07 18:21:00,
2013-02-07 13:26:00,32.4,9.0,30.46,South,175,2.0,9.0,37,0.00,,,0.00,258.0,meteohub,2013-02-07 18:26:00,
2013-02-07 13:31:00,31.6,10.0,30.45,SSE,167,5.0,8.0,40,0.00,,,0.00,241.0,meteohub,2013-02-07 18:31:00,
2013-02-07 13:36:00,31.8,10.2,30.45,SSE,165,1.0,10.0,40,0.00,,,0.00,241.0,meteohub,2013-02-07 18:36:00,
2013-02-07 13:42:00,31.8,9.7,30.45,South,191,3.0,10.0,39,0.00,,,0.00,237.0,meteohub,2013-02-07 18:42:00,
2013-02-07 13:47:00,31.8,10.2,30.45,South,188,4.0,10.0,40,0.00,,,0.00,221.0,meteohub,2013-02-07 18:47:00,
2013-02-07 13:52:00,31.5,10.4,30.45,South,184,1.0,8.0,41,0.00,,,0.00,271.0,meteohub,2013-02-07 18:52:00,
2013-02-07 13:57:00,31.8,10.2,30.45,SSE,154,2.0,8.0,40,0.00,,,0.00,250.0,meteohub,2013-02-07 18:57:00,
2013-02-07 14:02:00,32.4,10.8,30.45,ESE,118,4.0,8.0,40,0.00,,,0.00,278.0,meteohub,2013-02-07 19:02:00,
2013-02-07 14:07:00,32.4,10.8,30.45,ESE,119,1.0,6.0,40,0.00,,,0.00,221.0,meteohub,2013-02-07 19:07:00,
2013-02-07 14:12:00,33.3,10.4,30.45,SE,134,1.0,6.0,38,0.00,,,0.00,192.0,meteohub,2013-02-07 19:12:00,
2013-02-07 14:17:00,32.5,9.7,30.45,SSE,152,2.0,6.0,38,0.00,,,0.00,190.0,meteohub,2013-02-07 19:17:00,
2013-02-07 14:22:00,32.2,10.0,30.45,ESE,122,5.0,5.0,39,0.00,,,0.00,204.0,meteohub,2013-02-07 19:22:00,
2013-02-07 14:27:00,32.0,10.4,30.45,SE,138,6.0,6.0,40,0.00,,,0.00,185.0,meteohub,2013-02-07 19:27:00,
2013-02-07 14:32:00,32.2,11.1,30.45,SSE,162,1.0,7.0,41,0.00,,,0.00,171.0,meteohub,2013-02-07 19:32:00,
2013-02-07 14:37:00,32.0,11.5,30.45,SSE,152,1.0,7.0,42,0.00,,,0.00,169.0,meteohub,2013-02-07 19:37:00,
2013-02-07 14:42:00,32.0,10.9,30.45,SSE,165,2.0,7.0,41,0.00,,,0.00,174.0,meteohub,2013-02-07 19:42:00,
2013-02-07 14:47:00,32.4,11.3,30.45,South,169,2.0,7.0,41,0.00,,,0.00,193.0,meteohub,2013-02-07 19:47:00,
2013-02-07 14:52:00,31.8,11.8,30.45,SSE,166,4.0,8.0,43,0.00,,,0.00,190.0,meteohub,2013-02-07 19:52:00,
2013-02-07 14:57:00,31.3,10.8,30.45,South,175,4.0,9.0,42,0.00,,,0.00,158.0,meteohub,2013-02-07 19:57:00,
2013-02-07 15:02:00,31.3,11.8,30.45,SSE,161,6.0,9.0,44,0.00,,,0.00,151.0,meteohub,2013-02-07 20:02:00,
2013-02-07 15:07:00,30.9,11.5,30.45,SE,136,4.0,9.0,44,0.00,,,0.00,148.0,meteohub,2013-02-07 20:07:00,
2013-02-07 15:12:00,31.5,13.1,30.45,SSE,152,6.0,8.0,46,0.00,,,0.00,142.0,meteohub,2013-02-07 20:12:00,
2013-02-07 15:17:00,31.8,12.9,30.45,SE,130,2.0,8.0,45,0.00,,,0.00,137.0,meteohub,2013-02-07 20:17:00,
2013-02-07 15:22:00,32.4,12.9,30.45,ESE,123,6.0,8.0,44,0.00,,,0.00,118.0,meteohub,2013-02-07 20:22:00,
2013-02-07 15:27:00,32.2,13.3,30.45,SE,145,1.0,7.0,45,0.00,,,0.00,105.0,meteohub,2013-02-07 20:27:00,
2013-02-07 15:32:00,32.2,13.3,30.45,SSE,168,2.0,7.0,45,0.00,,,0.00,83.0,meteohub,2013-02-07 20:32:00,
2013-02-07 15:37:00,31.6,12.7,30.45,South,175,4.0,7.0,45,0.00,,,0.00,74.0,meteohub,2013-02-07 20:37:00,
2013-02-07 15:42:00,31.8,12.9,30.45,South,186,4.0,6.0,45,0.00,,,0.00,67.0,meteohub,2013-02-07 20:42:00,
2013-02-07 15:47:00,31.8,12.9,30.45,SSE,161,1.0,6.0,45,0.00,,,0.00,65.0,meteohub,2013-02-07 20:47:00,
2013-02-07 15:52:00,31.6,12.7,30.45,SSE,157,2.0,6.0,45,0.00,,,0.00,60.0,meteohub,2013-02-07 20:52:00,
2013-02-07 15:57:00,31.6,13.3,30.45,SSE,164,0.0,6.0,46,0.00,,,0.00,58.0,meteohub,2013-02-07 20:57:00,
2013-02-07 16:02:00,31.6,12.7,30.45,SSE,152,4.0,6.0,45,0.00,,,0.00,54.0,meteohub,2013-02-07 21:02:00,
2013-02-07 16:07:00,32.0,13.6,30.44,SSE,148,4.0,6.0,46,0.00,,,0.00,51.0,meteohub,2013-02-07 21:07:00,
2013-02-07 16:12:00,31.8,13.5,30.44,SSE,154,2.0,6.0,46,0.00,,,0.00,56.0,meteohub,2013-02-07 21:12:00,
2013-02-07 16:17:00,31.8,13.5,30.44,SE,140,1.0,6.0,46,0.00,,,0.00,53.0,meteohub,2013-02-07 21:17:00,
2013-02-07 16:22:00,31.8,13.5,30.44,South,169,2.0,6.0,46,0.00,,,0.00,44.0,meteohub,2013-02-07 21:22:00,
2013-02-07 16:27:00,31.6,13.3,30.45,SSE,148,1.0,5.0,46,0.00,,,0.00,39.0,meteohub,2013-02-07 21:27:00,
2013-02-07 16:32:00,32.2,13.6,30.45,SSE,163,5.0,5.0,46,0.00,,,0.00,35.0,meteohub,2013-02-07 21:32:00,
2013-02-07 16:37:00,31.8,13.5,30.44,South,175,2.0,5.0,46,0.00,,,0.00,26.0,meteohub,2013-02-07 21:37:00,
2013-02-07 16:42:00,32.0,13.1,30.44,South,173,1.0,7.0,45,0.00,,,0.00,21.0,meteohub,2013-02-07 21:42:00,
2013-02-07 16:47:00,31.8,13.8,30.44,SE,136,4.0,7.0,47,0.00,,,0.00,14.0,meteohub,2013-02-07 21:47:00,
2013-02-07 16:52:00,31.8,13.8,30.44,ESE,123,1.0,7.0,47,0.00,,,0.00,11.0,meteohub,2013-02-07 21:52:00,
2013-02-07 16:57:00,31.8,13.5,30.44,ESE,121,2.0,7.0,46,0.00,,,0.00,9.0,meteohub,2013-02-07 21:57:00,
2013-02-07 17:02:00,31.8,13.8,30.43,SE,133,0.0,8.0,47,0.00,,,0.00,7.0,meteohub,2013-02-07 22:02:00,
2013-02-07 17:07:00,32.0,14.0,30.43,ESE,117,2.0,8.0,47,0.00,,,0.00,0.0,meteohub,2013-02-07 22:07:00,
2013-02-07 17:13:00,31.8,14.9,30.43,ESE,119,4.0,7.0,49,0.00,,,0.00,0.0,meteohub,2013-02-07 22:13:00,
2013-02-07 17:18:00,31.8,14.9,30.43,SE,134,4.0,7.0,49,0.00,,,0.00,0.0,meteohub,2013-02-07 22:18:00,
2013-02-07 17:23:00,32.0,14.5,30.43,SE,141,4.0,7.0,48,0.00,,,0.00,0.0,meteohub,2013-02-07 22:23:00,
2013-02-07 17:28:00,32.2,14.7,30.43,SE,140,0.0,6.0,48,0.00,,,0.00,0.0,meteohub,2013-02-07 22:28:00,
2013-02-07 17:33:00,32.2,14.7,30.43,ESE,105,4.0,5.0,48,0.00,,,0.00,0.0,meteohub,2013-02-07 22:33:00,
2013-02-07 17:38:00,32.0,15.1,30.43,SE,129,4.0,5.0,49,0.00,,,0.00,0.0,meteohub,2013-02-07 22:38:00,
2013-02-07 17:43:00,32.0,15.1,30.43,SE,130,4.0,5.0,49,0.00,,,0.00,0.0,meteohub,2013-02-07 22:43:00,
2013-02-07 17:49:00,32.0,15.4,30.44,SE,132,0.0,6.0,50,0.00,,,0.00,0.0,meteohub,2013-02-07 22:49:00,
2013-02-07 17:54:00,32.0,15.1,30.44,SE,129,1.0,6.0,49,0.00,,,0.00,0.0,meteohub,2013-02-07 22:54:00,
2013-02-07 17:59:00,31.8,14.9,30.44,SE,128,1.0,6.0,49,0.00,,,0.00,0.0,meteohub,2013-02-07 22:59:00,
2013-02-07 18:04:00,31.8,14.9,30.44,SE,132,2.0,6.0,49,0.00,,,0.00,0.0,meteohub,2013-02-07 23:04:00,
2013-02-07 18:09:00,31.8,15.3,30.44,ESE,119,0.0,6.0,50,0.00,,,0.00,0.0,meteohub,2013-02-07 23:09:00,
2013-02-07 18:14:00,31.6,15.1,30.44,SSE,147,1.0,6.0,50,0.00,,,0.00,0.0,meteohub,2013-02-07 23:14:00,
2013-02-07 18:20:00,31.6,15.6,30.43,ESE,117,6.0,6.0,51,0.00,,,0.00,0.0,meteohub,2013-02-07 23:20:00,
2013-02-07 18:24:00,31.8,15.8,30.44,East,95,4.0,7.0,51,0.00,,,0.00,0.0,meteohub,2013-02-07 23:24:00,
2013-02-07 18:30:00,31.8,15.3,30.44,East,98,4.0,7.0,50,0.00,,,0.00,0.0,meteohub,2013-02-07 23:30:00,
2013-02-07 18:35:00,31.8,15.3,30.44,SE,136,6.0,8.0,50,0.00,,,0.00,0.0,meteohub,2013-02-07 23:35:00,
2013-02-07 18:40:00,31.6,15.1,30.44,East,92,6.0,8.0,50,0.00,,,0.00,0.0,meteohub,2013-02-07 23:40:00,
2013-02-07 18:45:00,31.6,15.1,30.44,SE,132,6.0,8.0,50,0.00,,,0.00,0.0,meteohub,2013-02-07 23:45:00,
2013-02-07 18:50:00,31.5,14.9,30.44,ESE,118,6.0,7.0,50,0.00,,,0.00,0.0,meteohub,2013-02-07 23:50:00,
2013-02-07 18:55:00,31.5,15.4,30.44,ESE,112,2.0,7.0,51,0.00,,,0.00,0.0,meteohub,2013-02-07 23:55:00,
2013-02-07 19:01:00,31.1,15.1,30.44,East,96,4.0,8.0,51,0.00,,,0.00,0.0,meteohub,2013-02-08 00:01:00,
2013-02-07 19:06:00,31.3,15.6,30.44,ESE,122,2.0,8.0,52,0.00,,,0.00,0.0,meteohub,2013-02-08 00:06:00,
2013-02-07 19:11:00,31.1,16.0,30.44,ESE,117,5.0,5.0,53,0.00,,,0.00,0.0,meteohub,2013-02-08 00:11:00,
2013-02-07 19:16:00,30.9,15.8,30.44,ESE,115,0.0,7.0,53,0.00,,,0.00,0.0,meteohub,2013-02-08 00:16:00,
2013-02-07 19:21:00,30.7,16.0,30.44,SE,130,0.0,7.0,54,0.00,,,0.00,0.0,meteohub,2013-02-08 00:21:00,
2013-02-07 19:26:00,30.7,16.5,30.44,East,97,2.0,7.0,55,0.00,,,0.00,0.0,meteohub,2013-02-08 00:26:00,
2013-02-07 19:31:00,30.6,16.3,30.45,ESE,106,1.0,5.0,55,0.00,,,0.00,0.0,meteohub,2013-02-08 00:31:00,
2013-02-07 19:36:00,30.6,16.3,30.45,ESE,105,1.0,5.0,55,0.00,,,0.00,0.0,meteohub,2013-02-08 00:36:00,
2013-02-07 19:42:00,30.6,16.7,30.45,ESE,105,0.0,5.0,56,0.00,,,0.00,0.0,meteohub,2013-02-08 00:42:00,
2013-02-07 19:47:00,30.6,16.7,30.44,ESE,106,2.0,5.0,56,0.00,,,0.00,0.0,meteohub,2013-02-08 00:47:00,
2013-02-07 19:52:00,30.4,17.1,30.44,ESE,107,0.0,4.0,57,0.00,,,0.00,0.0,meteohub,2013-02-08 00:52:00,
2013-02-07 19:57:00,30.4,17.1,30.45,ESE,121,0.0,4.0,57,0.00,,,0.00,0.0,meteohub,2013-02-08 00:57:00,
2013-02-07 20:02:00,30.4,17.4,30.44,East,101,0.0,5.0,58,0.00,,,0.00,0.0,meteohub,2013-02-08 01:02:00,
2013-02-07 20:07:00,30.4,17.4,30.43,East,101,1.0,5.0,58,0.00,,,0.00,0.0,meteohub,2013-02-08 01:07:00,
2013-02-07 20:12:00,30.2,17.2,30.44,East,86,1.0,5.0,58,0.00,,,0.00,0.0,meteohub,2013-02-08 01:12:00,
2013-02-07 20:17:00,30.0,17.4,30.44,East,86,3.0,5.0,59,0.00,,,0.00,0.0,meteohub,2013-02-08 01:17:00,
2013-02-07 20:22:00,30.2,17.6,30.44,East,90,2.0,5.0,59,0.00,,,0.00,0.0,meteohub,2013-02-08 01:22:00,
2013-02-07 20:27:00,30.0,17.4,30.44,East,90,1.0,3.0,59,0.00,,,0.00,0.0,meteohub,2013-02-08 01:27:00,
2013-02-07 20:32:00,30.0,17.4,30.44,East,90,0.0,3.0,59,0.00,,,0.00,0.0,meteohub,2013-02-08 01:32:00,
2013-02-07 20:37:00,30.0,17.4,30.44,ESE,106,2.0,5.0,59,0.00,,,0.00,0.0,meteohub,2013-02-08 01:37:00,
2013-02-07 20:42:00,29.8,17.6,30.43,ESE,106,0.0,5.0,60,0.00,,,0.00,0.0,meteohub,2013-02-08 01:42:00,
2013-02-07 20:47:00,29.7,17.4,30.43,ESE,105,1.0,5.0,60,0.00,,,0.00,0.0,meteohub,2013-02-08 01:47:00,
2013-02-07 20:52:00,29.7,17.4,30.43,ESE,105,0.0,4.0,60,0.00,,,0.00,0.0,meteohub,2013-02-08 01:52:00,
2013-02-07 20:57:00,29.5,17.2,30.43,ESE,105,0.0,4.0,60,0.00,,,0.00,0.0,meteohub,2013-02-08 01:57:00,
2013-02-07 21:02:00,29.5,17.2,30.44,ESE,103,0.0,4.0,60,0.00,,,0.00,0.0,meteohub,2013-02-08 02:02:00,
2013-02-07 21:07:00,29.5,17.8,30.44,ESE,103,0.0,4.0,61,0.00,,,0.00,0.0,meteohub,2013-02-08 02:07:00,
2013-02-07 21:12:00,29.3,17.6,30.44,ESE,103,2.0,4.0,61,0.00,,,0.00,0.0,meteohub,2013-02-08 02:12:00,
2013-02-07 21:17:00,28.9,17.6,30.44,ESE,103,0.0,4.0,62,0.00,,,0.00,0.0,meteohub,2013-02-08 02:17:00,
2013-02-07 21:22:00,28.9,18.0,30.44,ESE,103,0.0,4.0,63,0.00,,,0.00,0.0,meteohub,2013-02-08 02:22:00,
2013-02-07 21:27:00,28.6,17.6,30.44,ESE,103,0.0,4.0,63,0.00,,,0.00,0.0,meteohub,2013-02-08 02:27:00,
2013-02-07 21:32:00,28.2,17.6,30.44,ESE,103,0.0,4.0,64,0.00,,,0.00,0.0,meteohub,2013-02-08 02:32:00,
2013-02-07 21:37:00,28.0,17.8,30.44,ESE,103,0.0,4.0,65,0.00,,,0.00,0.0,meteohub,2013-02-08 02:37:00,
2013-02-07 21:42:00,28.2,18.0,30.44,ENE,75,0.0,4.0,65,0.00,,,0.00,0.0,meteohub,2013-02-08 02:42:00,
2013-02-07 21:47:00,28.9,19.0,30.44,ENE,57,3.0,4.0,66,0.00,,,0.00,0.0,meteohub,2013-02-08 02:47:00,
2013-02-07 21:52:00,29.5,19.6,30.44,ESE,117,0.0,4.0,66,0.00,,,0.00,0.0,meteohub,2013-02-08 02:52:00,
2013-02-07 21:57:00,30.2,19.9,30.44,SE,126,0.0,6.0,65,0.00,,,0.00,0.0,meteohub,2013-02-08 02:57:00,
2013-02-07 22:02:00,30.6,19.8,30.44,SE,130,4.0,11.0,64,0.00,,,0.00,0.0,meteohub,2013-02-08 03:02:00,
2013-02-07 22:07:00,30.9,19.8,30.43,SE,128,5.0,12.0,63,0.00,,,0.00,0.0,meteohub,2013-02-08 03:07:00,
2013-02-07 22:12:00,30.9,19.4,30.43,East,97,4.0,12.0,62,0.00,,,0.00,0.0,meteohub,2013-02-08 03:12:00,
2013-02-07 22:17:00,30.7,19.2,30.43,East,96,0.0,12.0,62,0.00,,,0.00,0.0,meteohub,2013-02-08 03:17:00,
2013-02-07 22:22:00,30.9,19.4,30.43,ESE,107,9.0,9.0,62,0.00,,,0.00,0.0,meteohub,2013-02-08 03:22:00,
2013-02-07 22:27:00,30.7,18.9,30.43,SSE,148,1.0,13.0,61,0.00,,,0.00,0.0,meteohub,2013-02-08 03:27:00,
2013-02-07 22:32:00,30.7,18.9,30.43,NE,39,4.0,13.0,61,0.00,,,0.00,0.0,meteohub,2013-02-08 03:32:00,
2013-02-07 22:37:00,29.8,18.0,30.42,NE,41,3.0,13.0,61,0.00,,,0.00,0.0,meteohub,2013-02-08 03:37:00,
2013-02-07 22:42:00,29.1,18.1,30.42,ENE,57,3.0,6.0,63,0.00,,,0.00,0.0,meteohub,2013-02-08 03:42:00,
2013-02-07 22:47:00,28.9,18.0,30.42,NE,54,4.0,6.0,63,0.00,,,0.00,0.0,meteohub,2013-02-08 03:47:00,
2013-02-07 22:52:00,28.9,18.3,30.42,NE,36,3.0,6.0,64,0.00,,,0.00,0.0,meteohub,2013-02-08 03:52:00,
2013-02-07 22:57:00,28.9,18.3,30.42,ENE,71,2.0,6.0,64,0.00,,,0.00,0.0,meteohub,2013-02-08 03:57:00,
2013-02-07 23:02:00,28.8,18.1,30.41,East,93,2.0,6.0,64,0.00,,,0.00,0.0,meteohub,2013-02-08 04:02:00,
2013-02-07 23:07:00,28.9,18.0,30.40,ENE,59,3.0,6.0,63,0.00,,,0.00,0.0,meteohub,2013-02-08 04:07:00,
2013-02-07 23:12:00,29.1,18.5,30.40,ENE,71,3.0,6.0,64,0.00,,,0.00,0.0,meteohub,2013-02-08 04:12:00,
2013-02-07 23:17:00,29.1,18.5,30.41,East,88,1.0,7.0,64,0.00,,,0.00,0.0,meteohub,2013-02-08 04:17:00,
2013-02-07 23:22:00,29.1,18.5,30.40,ENE,66,3.0,7.0,64,0.00,,,0.00,0.0,meteohub,2013-02-08 04:22:00,
2013-02-07 23:27:00,29.3,18.7,30.40,ENE,69,4.0,6.0,64,0.00,,,0.00,0.0,meteohub,2013-02-08 04:27:00,
2013-02-07 23:32:00,29.7,19.8,30.40,ESE,109,1.0,6.0,66,0.00,,,0.00,0.0,meteohub,2013-02-08 04:32:00,
2013-02-07 23:37:00,29.7,19.8,30.40,ENE,65,4.0,8.0,66,0.00,,,0.00,0.0,meteohub,2013-02-08 04:37:00,
2013-02-07 23:42:00,29.7,19.4,30.39,ENE,77,4.0,8.0,65,0.00,,,0.00,0.0,meteohub,2013-02-08 04:42:00,
2013-02-07 23:47:00,29.8,19.9,30.38,ENE,59,4.0,8.0,66,0.00,,,0.00,0.0,meteohub,2013-02-08 04:47:00,
2013-02-07 23:52:00,30.0,20.1,30.38,ENE,74,4.0,8.0,66,0.00,,,0.00,0.0,meteohub,2013-02-08 04:52:00,
2013-02-07 23:57:00,30.2,20.5,30.38,East,86,1.0,11.0,67,0.00,,,0.00,0.0,meteohub,2013-02-08 04:57:00,